BAW249 EGLL-SBGL
Flight info
| Callsign | BAW249 |
|---|---|
| Flight time | N/A |
| Altitude | 32000 |
| Route | GASGU N514 ADKIK DCT JOZMA DCT GAPLI/M083F320 DCT TAMEL DCT GONAN DCT 40N018W/M083F340 35N021W DCT SORAD DCT OBOMO/N0490F340 DCT TARIM/N0488F360 DCT PINRU UN741 TERIN UZ19 ANPAG UZ29 ARUKA/N0483F380 UZ29 KEVOS UN401 MOLSU |
| Aircraft | B77W/H-SDE1E2E3FGHIJ2J3J4J5M1RWXY/LB1D1 |
Departure
| Time | 2026-05-07 08:53 |
|---|---|
| Airport | London Heathrow Airport (EGLL) |
Arrival
| Time | N/A |
|---|---|
| Airport | Rio Galeão – Tom Jobim International Airport (SBGL) |
| Time | Latitude | Longitude | Altitude | Speed | Heading |
|---|---|---|---|---|---|
| 2026-05-07 08:06 | 51.47053 | -0.48017 | 95 ft | 0 kts | 270° |
| 2026-05-07 08:42 | 51.47053 | -0.48004 | 96 ft | 4 kts | 269° |
| 2026-05-07 08:42 | 51.47053 | -0.47961 | 93 ft | 4 kts | 270° |
| 2026-05-07 08:42 | 51.47053 | -0.47919 | 94 ft | 3 kts | 263° |
| 2026-05-07 08:43 | 51.47057 | -0.47894 | 91 ft | 3 kts | 225° |
| 2026-05-07 08:43 | 51.47073 | -0.47878 | 91 ft | 3 kts | 195° |
| 2026-05-07 08:43 | 51.47088 | -0.47874 | 91 ft | 2 kts | 186° |
| 2026-05-07 08:43 | 51.47099 | -0.47872 | 90 ft | 2 kts | 182° |
| 2026-05-07 08:44 | 51.47106 | -0.47872 | 91 ft | 0 kts | 181° |
| 2026-05-07 08:47 | 51.47099 | -0.47872 | 90 ft | 6 kts | 180° |
| 2026-05-07 08:47 | 51.47036 | -0.47873 | 92 ft | 9 kts | 179° |
| 2026-05-07 08:47 | 51.46971 | -0.47872 | 91 ft | 9 kts | 179° |
| 2026-05-07 08:48 | 51.46905 | -0.47871 | 91 ft | 9 kts | 179° |
| 2026-05-07 08:48 | 51.46840 | -0.47870 | 91 ft | 9 kts | 179° |
| 2026-05-07 08:48 | 51.46775 | -0.47869 | 91 ft | 9 kts | 179° |
| 2026-05-07 08:48 | 51.46710 | -0.47867 | 91 ft | 9 kts | 180° |
| 2026-05-07 08:49 | 51.46661 | -0.47926 | 95 ft | 10 kts | 249° |
| 2026-05-07 08:49 | 51.46653 | -0.48038 | 92 ft | 12 kts | 268° |
| 2026-05-07 08:49 | 51.46651 | -0.48180 | 93 ft | 13 kts | 269° |
| 2026-05-07 08:49 | 51.46651 | -0.48332 | 93 ft | 14 kts | 270° |
| 2026-05-07 08:50 | 51.46652 | -0.48491 | 92 ft | 15 kts | 269° |
| 2026-05-07 08:50 | 51.46651 | -0.48606 | 92 ft | 10 kts | 269° |
| 2026-05-07 08:50 | 51.46646 | -0.48712 | 94 ft | 9 kts | 249° |
| 2026-05-07 08:50 | 51.46602 | -0.48761 | 96 ft | 8 kts | 199° |
| 2026-05-07 08:51 | 51.46549 | -0.48780 | 95 ft | 8 kts | 182° |
| 2026-05-07 08:51 | 51.46498 | -0.48749 | 95 ft | 8 kts | 139° |
| 2026-05-07 08:51 | 51.46480 | -0.48668 | 96 ft | 7 kts | 95° |
| 2026-05-07 08:51 | 51.46479 | -0.48634 | 94 ft | 0 kts | 90° |
| 2026-05-07 08:52 | 51.46479 | -0.48475 | 93 ft | 43 kts | 90° |
| 2026-05-07 08:52 | 51.46481 | -0.47622 | 90 ft | 108 kts | 90° |
| 2026-05-07 08:52 | 51.46486 | -0.46110 | 95 ft | 161 kts | 89° |
| 2026-05-07 08:53 | 51.46481 | -0.44164 | 323 ft | 176 kts | 92° |
| 2026-05-07 08:53 | 51.46455 | -0.42220 | 884 ft | 174 kts | 94° |
| 2026-05-07 08:53 | 51.46273 | -0.40286 | 1330 ft | 177 kts | 110° |
| 2026-05-07 08:53 | 51.45627 | -0.38562 | 1535 ft | 188 kts | 132° |
| 2026-05-07 08:54 | 51.44757 | -0.36907 | 1746 ft | 205 kts | 128° |
| 2026-05-07 08:54 | 51.43850 | -0.35029 | 2010 ft | 217 kts | 133° |
| 2026-05-07 08:54 | 51.43076 | -0.33979 | 2252 ft | 222 kts | 148° |
| 2026-05-07 08:54 | 51.41641 | -0.33038 | 2770 ft | 225 kts | 168° |
| 2026-05-07 08:55 | 51.40062 | -0.32860 | 3259 ft | 233 kts | 186° |
| 2026-05-07 08:55 | 51.37990 | -0.34041 | 3835 ft | 248 kts | 215° |
| 2026-05-07 08:55 | 51.36634 | -0.35816 | 4400 ft | 255 kts | 222° |
| 2026-05-07 08:55 | 51.35756 | -0.37094 | 4844 ft | 258 kts | 223° |
| 2026-05-07 08:56 | 51.34415 | -0.39041 | 5544 ft | 261 kts | 223° |
| 2026-05-07 08:56 | 51.33060 | -0.40985 | 6248 ft | 263 kts | 222° |
| 2026-05-07 08:56 | 51.31727 | -0.43003 | 6901 ft | 266 kts | 230° |
| 2026-05-07 08:56 | 51.30681 | -0.45383 | 7474 ft | 269 kts | 242° |
| 2026-05-07 08:57 | 51.29894 | -0.48049 | 8070 ft | 273 kts | 250° |
| 2026-05-07 08:57 | 51.29317 | -0.50959 | 8698 ft | 277 kts | 254° |
| 2026-05-07 08:57 | 51.28796 | -0.53944 | 9295 ft | 281 kts | 255° |
| 2026-05-07 08:57 | 51.28267 | -0.56977 | 9882 ft | 286 kts | 255° |
| 2026-05-07 08:58 | 51.27704 | -0.60062 | 10419 ft | 292 kts | 253° |
| 2026-05-07 08:58 | 51.27090 | -0.63251 | 10604 ft | 311 kts | 253° |
| 2026-05-07 08:58 | 51.26424 | -0.66675 | 10788 ft | 332 kts | 252° |
| 2026-05-07 08:58 | 51.25717 | -0.70304 | 11100 ft | 348 kts | 252° |
| 2026-05-07 08:59 | 51.25000 | -0.73984 | 11663 ft | 356 kts | 252° |
| 2026-05-07 08:59 | 51.24261 | -0.77780 | 12388 ft | 360 kts | 252° |
| 2026-05-07 08:59 | 51.23518 | -0.81593 | 13218 ft | 362 kts | 252° |
| 2026-05-07 08:59 | 51.22763 | -0.85468 | 14025 ft | 365 kts | 252° |
| 2026-05-07 09:00 | 51.22002 | -0.89358 | 14733 ft | 368 kts | 252° |
| 2026-05-07 09:00 | 51.21231 | -0.93290 | 15433 ft | 372 kts | 252° |
| 2026-05-07 09:00 | 51.20300 | -0.97066 | 15966 ft | 373 kts | 238° |
| 2026-05-07 09:00 | 51.18742 | -1.00400 | 16418 ft | 379 kts | 230° |
| 2026-05-07 09:01 | 51.17054 | -1.03686 | 17100 ft | 382 kts | 231° |
| 2026-05-07 09:01 | 51.15381 | -1.06994 | 17885 ft | 384 kts | 231° |
| 2026-05-07 09:01 | 51.13717 | -1.10339 | 18555 ft | 387 kts | 231° |
| 2026-05-07 09:01 | 51.12049 | -1.13733 | 19156 ft | 391 kts | 232° |
| 2026-05-07 09:02 | 51.10367 | -1.17170 | 19765 ft | 394 kts | 232° |
| 2026-05-07 09:02 | 51.08672 | -1.20631 | 20360 ft | 398 kts | 232° |
| 2026-05-07 09:02 | 51.06982 | -1.24073 | 20955 ft | 401 kts | 232° |
| 2026-05-07 09:02 | 51.05251 | -1.27583 | 21555 ft | 405 kts | 232° |
| 2026-05-07 09:03 | 51.03509 | -1.31107 | 22123 ft | 408 kts | 232° |
| 2026-05-07 09:03 | 51.01787 | -1.34728 | 22708 ft | 411 kts | 237° |
| 2026-05-07 09:03 | 51.00363 | -1.38688 | 23271 ft | 415 kts | 244° |
| 2026-05-07 09:03 | 50.99231 | -1.42917 | 23796 ft | 418 kts | 251° |
| 2026-05-07 09:04 | 50.98405 | -1.47362 | 24260 ft | 421 kts | 255° |
| 2026-05-07 09:04 | 50.97649 | -1.51884 | 24745 ft | 424 kts | 255° |
| 2026-05-07 09:04 | 50.96898 | -1.56428 | 25205 ft | 426 kts | 255° |
| 2026-05-07 09:04 | 50.96146 | -1.60936 | 25670 ft | 429 kts | 255° |
| 2026-05-07 09:05 | 50.95370 | -1.65520 | 26134 ft | 431 kts | 255° |
| 2026-05-07 09:05 | 50.94581 | -1.70124 | 26576 ft | 434 kts | 255° |
| 2026-05-07 09:05 | 50.93777 | -1.74773 | 27018 ft | 437 kts | 254° |
| 2026-05-07 09:05 | 50.92968 | -1.79427 | 27447 ft | 440 kts | 254° |
| 2026-05-07 09:06 | 50.92150 | -1.84122 | 27879 ft | 442 kts | 254° |
| 2026-05-07 09:06 | 50.91328 | -1.88830 | 28300 ft | 445 kts | 254° |
| 2026-05-07 09:06 | 50.90509 | -1.93518 | 28720 ft | 447 kts | 254° |
| 2026-05-07 09:06 | 50.89674 | -1.98275 | 29102 ft | 450 kts | 254° |
| 2026-05-07 09:07 | 50.88832 | -2.03063 | 29495 ft | 452 kts | 254° |
| 2026-05-07 09:07 | 50.87988 | -2.07873 | 29876 ft | 454 kts | 254° |
| 2026-05-07 09:07 | 50.87140 | -2.12706 | 30225 ft | 456 kts | 254° |
| 2026-05-07 09:07 | 50.86287 | -2.17560 | 30503 ft | 459 kts | 254° |
| 2026-05-07 09:08 | 50.85425 | -2.22450 | 30775 ft | 461 kts | 254° |
| 2026-05-07 09:08 | 50.84558 | -2.27359 | 31049 ft | 463 kts | 254° |
| 2026-05-07 09:08 | 50.83689 | -2.32262 | 31321 ft | 464 kts | 254° |
| 2026-05-07 09:08 | 50.82810 | -2.37206 | 31578 ft | 466 kts | 254° |
| 2026-05-07 09:09 | 50.81931 | -2.42139 | 31818 ft | 468 kts | 254° |
| 2026-05-07 09:09 | 50.81055 | -2.47047 | 31964 ft | 468 kts | 254° |
| 2026-05-07 09:09 | 50.79383 | -2.56874 | 32049 ft | 461 kts | 258° |
| 2026-05-07 09:10 | 50.78219 | -2.66942 | 32060 ft | 468 kts | 259° |
| 2026-05-07 09:10 | 50.77076 | -2.77009 | 32054 ft | 467 kts | 259° |
| 2026-05-07 09:11 | 50.75902 | -2.87090 | 32032 ft | 466 kts | 259° |
| 2026-05-07 09:11 | 50.74709 | -2.97151 | 32048 ft | 465 kts | 259° |
| 2026-05-07 09:12 | 50.73509 | -3.07175 | 32049 ft | 464 kts | 259° |
| 2026-05-07 09:12 | 50.72304 | -3.17158 | 32038 ft | 464 kts | 259° |
| 2026-05-07 09:13 | 50.71090 | -3.27156 | 32051 ft | 464 kts | 259° |
| 2026-05-07 09:13 | 50.69868 | -3.37143 | 32042 ft | 464 kts | 259° |
| 2026-05-07 09:14 | 50.68640 | -3.47107 | 32054 ft | 464 kts | 259° |
| 2026-05-07 09:14 | 50.67397 | -3.57109 | 32054 ft | 464 kts | 259° |
| 2026-05-07 09:15 | 50.66154 | -3.67048 | 32051 ft | 464 kts | 258° |
| 2026-05-07 09:15 | 50.64895 | -3.77039 | 32043 ft | 464 kts | 258° |
| 2026-05-07 09:16 | 50.63633 | -3.86994 | 32034 ft | 464 kts | 258° |
| 2026-05-07 09:16 | 50.62352 | -3.96972 | 32034 ft | 463 kts | 258° |
| 2026-05-07 09:17 | 50.61005 | -4.06910 | 32042 ft | 463 kts | 257° |
| 2026-05-07 09:17 | 50.59642 | -4.16755 | 32046 ft | 463 kts | 257° |
| 2026-05-07 09:18 | 50.58267 | -4.26674 | 32033 ft | 462 kts | 257° |
| 2026-05-07 09:18 | 50.56893 | -4.36568 | 32036 ft | 462 kts | 257° |
| 2026-05-07 09:19 | 50.55519 | -4.46406 | 32024 ft | 462 kts | 257° |
| 2026-05-07 09:19 | 50.54128 | -4.56299 | 32043 ft | 462 kts | 257° |
| 2026-05-07 09:20 | 50.52738 | -4.66117 | 32038 ft | 462 kts | 257° |
| 2026-05-07 09:20 | 50.51330 | -4.76002 | 32047 ft | 463 kts | 257° |
| 2026-05-07 09:21 | 50.49913 | -4.85882 | 32050 ft | 463 kts | 257° |
| 2026-05-07 09:21 | 50.48497 | -4.95689 | 32057 ft | 463 kts | 257° |
| 2026-05-07 09:22 | 50.47062 | -5.05568 | 32051 ft | 463 kts | 257° |
| 2026-05-07 09:22 | 50.45618 | -5.15450 | 32057 ft | 463 kts | 257° |
| 2026-05-07 09:23 | 50.44175 | -5.25252 | 32032 ft | 463 kts | 256° |
| 2026-05-07 09:23 | 50.42735 | -5.34982 | 32046 ft | 463 kts | 256° |
| 2026-05-07 09:24 | 50.41269 | -5.44821 | 32041 ft | 463 kts | 256° |
| 2026-05-07 09:24 | 50.39801 | -5.54606 | 32018 ft | 463 kts | 256° |
| 2026-05-07 09:25 | 50.38317 | -5.64443 | 32016 ft | 463 kts | 256° |
| 2026-05-07 09:25 | 50.36826 | -5.74265 | 32031 ft | 464 kts | 256° |
| 2026-05-07 09:26 | 50.35334 | -5.84034 | 32028 ft | 464 kts | 256° |
| 2026-05-07 09:26 | 50.33822 | -5.93876 | 32032 ft | 464 kts | 256° |
| 2026-05-07 09:27 | 50.32310 | -6.03654 | 32017 ft | 464 kts | 256° |
| 2026-05-07 09:28 | 50.30014 | -6.18395 | 32028 ft | 464 kts | 255° |
| 2026-05-07 09:28 | 50.28471 | -6.28220 | 32019 ft | 464 kts | 255° |
| 2026-05-07 09:29 | 50.26932 | -6.37971 | 32016 ft | 464 kts | 255° |
| 2026-05-07 09:29 | 50.25374 | -6.47779 | 32009 ft | 464 kts | 255° |
| 2026-05-07 09:30 | 50.23814 | -6.57542 | 32033 ft | 464 kts | 255° |
| 2026-05-07 09:30 | 50.22239 | -6.67335 | 32020 ft | 464 kts | 255° |
| 2026-05-07 09:31 | 50.20664 | -6.77080 | 32022 ft | 464 kts | 255° |
| 2026-05-07 09:31 | 50.19073 | -6.86862 | 32020 ft | 464 kts | 255° |
| 2026-05-07 09:32 | 50.17471 | -6.96653 | 32018 ft | 464 kts | 254° |
| 2026-05-07 09:32 | 50.15875 | -7.06354 | 32019 ft | 465 kts | 254° |
| 2026-05-07 09:33 | 50.14259 | -7.16124 | 32021 ft | 465 kts | 254° |
| 2026-05-07 09:33 | 50.12631 | -7.25905 | 32017 ft | 465 kts | 254° |
| 2026-05-07 09:34 | 50.11006 | -7.35614 | 32021 ft | 465 kts | 254° |
| 2026-05-07 09:34 | 50.09363 | -7.45379 | 32019 ft | 466 kts | 253° |
| 2026-05-07 09:35 | 50.07707 | -7.55158 | 32020 ft | 466 kts | 253° |
| 2026-05-07 09:35 | 50.06055 | -7.64870 | 32021 ft | 466 kts | 253° |
| 2026-05-07 09:36 | 50.04379 | -7.74658 | 32019 ft | 467 kts | 253° |
| 2026-05-07 09:36 | 50.02704 | -7.84403 | 32022 ft | 467 kts | 253° |
| 2026-05-07 09:37 | 50.00972 | -7.94180 | 32017 ft | 467 kts | 250° |
| 2026-05-07 09:37 | 49.98267 | -8.03257 | 32030 ft | 464 kts | 238° |
| 2026-05-07 09:38 | 49.94522 | -8.11448 | 32028 ft | 464 kts | 231° |
| 2026-05-07 09:38 | 49.90594 | -8.19351 | 32015 ft | 466 kts | 231° |
| 2026-05-07 09:39 | 49.86636 | -8.27336 | 32018 ft | 467 kts | 231° |
| 2026-05-07 09:39 | 49.82681 | -8.35359 | 32017 ft | 468 kts | 231° |
| 2026-05-07 09:40 | 49.78720 | -8.43395 | 32018 ft | 468 kts | 231° |
| 2026-05-07 09:40 | 49.75430 | -8.50056 | 32012 ft | 468 kts | 231° |
| 2026-05-07 09:41 | 49.70817 | -8.59359 | 32015 ft | 468 kts | 231° |
| 2026-05-07 09:41 | 49.67511 | -8.66007 | 32011 ft | 468 kts | 231° |
| 2026-05-07 09:42 | 49.63537 | -8.73975 | 32014 ft | 468 kts | 231° |
| 2026-05-07 09:42 | 49.59546 | -8.81951 | 32017 ft | 468 kts | 231° |
| 2026-05-07 09:43 | 49.55585 | -8.89845 | 32012 ft | 468 kts | 230° |
| 2026-05-07 09:43 | 49.51584 | -8.97796 | 32013 ft | 469 kts | 230° |
| 2026-05-07 09:44 | 49.47577 | -9.05735 | 32011 ft | 469 kts | 230° |
| 2026-05-07 09:44 | 49.43580 | -9.13628 | 32019 ft | 470 kts | 230° |
| 2026-05-07 09:45 | 49.39544 | -9.21577 | 32016 ft | 470 kts | 230° |
| 2026-05-07 09:45 | 49.35524 | -9.29470 | 32016 ft | 471 kts | 230° |
| 2026-05-07 09:46 | 49.31475 | -9.37396 | 32014 ft | 472 kts | 230° |
| 2026-05-07 09:46 | 49.27435 | -9.45281 | 32015 ft | 472 kts | 230° |
| 2026-05-07 09:47 | 49.23369 | -9.53195 | 32015 ft | 473 kts | 230° |
| 2026-05-07 09:47 | 49.19284 | -9.61119 | 32017 ft | 473 kts | 230° |
| 2026-05-07 09:48 | 49.15224 | -9.68975 | 32013 ft | 474 kts | 230° |
| 2026-05-07 09:48 | 49.11119 | -9.76892 | 32015 ft | 474 kts | 230° |
| 2026-05-07 09:49 | 49.07028 | -9.84760 | 32017 ft | 475 kts | 230° |
| 2026-05-07 09:49 | 49.02909 | -9.92658 | 32019 ft | 476 kts | 230° |
| 2026-05-07 09:50 | 48.98773 | -10.00564 | 32018 ft | 476 kts | 231° |
| 2026-05-07 09:50 | 48.94660 | -10.08405 | 32018 ft | 477 kts | 231° |
| 2026-05-07 09:51 | 48.90508 | -10.16297 | 32017 ft | 477 kts | 231° |
| 2026-05-07 09:51 | 48.86364 | -10.24150 | 32016 ft | 478 kts | 231° |
| 2026-05-07 09:52 | 48.82194 | -10.32030 | 32017 ft | 478 kts | 231° |
| 2026-05-07 09:52 | 48.78045 | -10.39851 | 32016 ft | 479 kts | 231° |
| 2026-05-07 09:53 | 48.73747 | -10.47594 | 32017 ft | 479 kts | 225° |
| 2026-05-07 09:53 | 48.68655 | -10.54101 | 32014 ft | 480 kts | 214° |
| 2026-05-07 09:54 | 48.63082 | -10.59708 | 32023 ft | 481 kts | 214° |
| 2026-05-07 09:54 | 48.57512 | -10.65286 | 32015 ft | 483 kts | 214° |
| 2026-05-07 09:55 | 48.51913 | -10.70930 | 32016 ft | 484 kts | 214° |
| 2026-05-07 09:55 | 48.46309 | -10.76594 | 32019 ft | 484 kts | 215° |
| 2026-05-07 09:56 | 48.40731 | -10.82225 | 32018 ft | 485 kts | 215° |
| 2026-05-07 09:56 | 48.35107 | -10.87884 | 32016 ft | 486 kts | 215° |
| 2026-05-07 09:57 | 48.29502 | -10.93507 | 32019 ft | 487 kts | 216° |
| 2026-05-07 09:57 | 48.23845 | -10.99167 | 32018 ft | 488 kts | 216° |
| 2026-05-07 09:58 | 48.18199 | -11.04800 | 32019 ft | 488 kts | 216° |
| 2026-05-07 09:58 | 48.12531 | -11.10440 | 32017 ft | 489 kts | 216° |
| 2026-05-07 09:59 | 48.06886 | -11.16042 | 32018 ft | 489 kts | 216° |
| 2026-05-07 09:59 | 48.01204 | -11.21666 | 32019 ft | 489 kts | 217° |
| 2026-05-07 10:00 | 47.95515 | -11.27282 | 32020 ft | 489 kts | 217° |
| 2026-05-07 10:00 | 47.89857 | -11.32852 | 32017 ft | 490 kts | 217° |
| 2026-05-07 10:01 | 47.84156 | -11.38449 | 32017 ft | 490 kts | 217° |
| 2026-05-07 10:01 | 47.78484 | -11.44004 | 32017 ft | 489 kts | 217° |
| 2026-05-07 10:02 | 47.72783 | -11.49572 | 32018 ft | 488 kts | 217° |
| 2026-05-07 10:02 | 47.67133 | -11.55074 | 32022 ft | 487 kts | 217° |
| 2026-05-07 10:03 | 47.61447 | -11.60598 | 32017 ft | 487 kts | 217° |
| 2026-05-07 10:03 | 47.55815 | -11.66054 | 32017 ft | 486 kts | 217° |
| 2026-05-07 10:04 | 47.50155 | -11.71525 | 32009 ft | 486 kts | 217° |
| 2026-05-07 10:04 | 47.44493 | -11.76982 | 32022 ft | 485 kts | 217° |
| 2026-05-07 10:05 | 47.38836 | -11.82421 | 32016 ft | 485 kts | 217° |
| 2026-05-07 10:05 | 47.33207 | -11.87818 | 32018 ft | 484 kts | 217° |
| 2026-05-07 10:06 | 47.27550 | -11.93228 | 32011 ft | 483 kts | 217° |
| 2026-05-07 10:06 | 47.21935 | -11.98585 | 32018 ft | 482 kts | 217° |
| 2026-05-07 10:07 | 47.16296 | -12.03950 | 32015 ft | 481 kts | 217° |
| 2026-05-07 10:07 | 47.10660 | -12.09299 | 32013 ft | 481 kts | 217° |
| 2026-05-07 10:08 | 47.05067 | -12.14594 | 32013 ft | 481 kts | 217° |
| 2026-05-07 10:08 | 46.99444 | -12.19904 | 32016 ft | 480 kts | 217° |
| 2026-05-07 10:09 | 46.93810 | -12.25210 | 32018 ft | 480 kts | 217° |
| 2026-05-07 10:09 | 46.88187 | -12.30493 | 32013 ft | 480 kts | 217° |
| 2026-05-07 10:10 | 46.82585 | -12.35742 | 32014 ft | 480 kts | 217° |
| 2026-05-07 10:10 | 46.76955 | -12.41005 | 32012 ft | 479 kts | 217° |
| 2026-05-07 10:11 | 46.71328 | -12.46251 | 32014 ft | 479 kts | 217° |
| 2026-05-07 10:11 | 46.65742 | -12.51447 | 32010 ft | 478 kts | 217° |
| 2026-05-07 10:12 | 46.60131 | -12.56652 | 32007 ft | 477 kts | 216° |
| 2026-05-07 10:12 | 46.54559 | -12.61808 | 32013 ft | 477 kts | 216° |
| 2026-05-07 10:13 | 46.48954 | -12.66983 | 32005 ft | 476 kts | 216° |
| 2026-05-07 10:13 | 46.43354 | -12.72140 | 32022 ft | 475 kts | 216° |
| 2026-05-07 10:14 | 46.37801 | -12.77241 | 32015 ft | 475 kts | 216° |
| 2026-05-07 10:14 | 46.32204 | -12.82370 | 32007 ft | 475 kts | 216° |
| 2026-05-07 10:15 | 46.26612 | -12.87482 | 32000 ft | 475 kts | 216° |
| 2026-05-07 10:15 | 46.21020 | -12.92582 | 32005 ft | 475 kts | 216° |
| 2026-05-07 10:16 | 46.15449 | -12.97649 | 32001 ft | 474 kts | 216° |
| 2026-05-07 10:16 | 46.09857 | -13.02724 | 32005 ft | 474 kts | 216° |
| 2026-05-07 10:17 | 46.04295 | -13.07759 | 32004 ft | 474 kts | 216° |
| 2026-05-07 10:17 | 45.98701 | -13.12811 | 31999 ft | 474 kts | 215° |
| 2026-05-07 10:18 | 45.93100 | -13.17856 | 32001 ft | 474 kts | 215° |
| 2026-05-07 10:18 | 45.87541 | -13.22853 | 32003 ft | 473 kts | 215° |
| 2026-05-07 10:19 | 45.81935 | -13.27879 | 32001 ft | 473 kts | 215° |
| 2026-05-07 10:19 | 45.76375 | -13.32852 | 32000 ft | 473 kts | 215° |
| 2026-05-07 10:20 | 45.70784 | -13.37841 | 32001 ft | 472 kts | 215° |
| 2026-05-07 10:20 | 45.65203 | -13.42809 | 32002 ft | 472 kts | 215° |
| 2026-05-07 10:21 | 45.59654 | -13.47737 | 31993 ft | 472 kts | 214° |
| 2026-05-07 10:21 | 45.54078 | -13.52677 | 32000 ft | 471 kts | 214° |
| 2026-05-07 10:22 | 45.48484 | -13.57622 | 31997 ft | 471 kts | 214° |
| 2026-05-07 10:22 | 45.42905 | -13.62542 | 31999 ft | 471 kts | 214° |
| 2026-05-07 10:23 | 45.37370 | -13.67411 | 31998 ft | 471 kts | 214° |
| 2026-05-07 10:23 | 45.31792 | -13.72307 | 31994 ft | 471 kts | 214° |
| 2026-05-07 10:24 | 45.26200 | -13.77204 | 31996 ft | 471 kts | 214° |
| 2026-05-07 10:24 | 45.20652 | -13.82051 | 31994 ft | 471 kts | 214° |
| 2026-05-07 10:25 | 45.15051 | -13.86933 | 31990 ft | 471 kts | 214° |
| 2026-05-07 10:25 | 45.09497 | -13.91763 | 31989 ft | 471 kts | 214° |
| 2026-05-07 10:26 | 45.03910 | -13.96613 | 31990 ft | 471 kts | 214° |
| 2026-05-07 10:26 | 44.98306 | -14.01470 | 31990 ft | 471 kts | 214° |
| 2026-05-07 10:27 | 44.92766 | -14.06327 | 31989 ft | 471 kts | 214° |
| 2026-05-07 10:27 | 44.87199 | -14.11220 | 31984 ft | 471 kts | 214° |
| 2026-05-07 10:28 | 44.81648 | -14.16084 | 31985 ft | 471 kts | 214° |
| 2026-05-07 10:28 | 44.76056 | -14.20967 | 31987 ft | 472 kts | 214° |
| 2026-05-07 10:29 | 44.71412 | -14.25011 | 31986 ft | 472 kts | 214° |
| 2026-05-07 10:29 | 44.64902 | -14.30667 | 31986 ft | 472 kts | 214° |
| 2026-05-07 10:30 | 44.57438 | -14.37133 | 31989 ft | 473 kts | 214° |
| 2026-05-07 10:30 | 44.51826 | -14.41982 | 31983 ft | 473 kts | 214° |
| 2026-05-07 10:31 | 44.46247 | -14.46792 | 31983 ft | 473 kts | 214° |
| 2026-05-07 10:31 | 44.40624 | -14.51628 | 31982 ft | 474 kts | 214° |
| 2026-05-07 10:32 | 44.34999 | -14.56456 | 31983 ft | 474 kts | 214° |
| 2026-05-07 10:32 | 44.29394 | -14.61256 | 31982 ft | 475 kts | 214° |
| 2026-05-07 10:33 | 44.23748 | -14.66078 | 31981 ft | 475 kts | 214° |
| 2026-05-07 10:33 | 44.18101 | -14.70892 | 31980 ft | 475 kts | 214° |
| 2026-05-07 10:34 | 44.12462 | -14.75687 | 31977 ft | 476 kts | 214° |
| 2026-05-07 10:34 | 44.06798 | -14.80494 | 31974 ft | 477 kts | 214° |
| 2026-05-07 10:35 | 44.01156 | -14.85269 | 31976 ft | 477 kts | 214° |
| 2026-05-07 10:35 | 43.95467 | -14.90075 | 31973 ft | 478 kts | 214° |
| 2026-05-07 10:36 | 43.89802 | -14.94850 | 31949 ft | 472 kts | 213° |
| 2026-05-07 10:36 | 43.87034 | -14.97176 | 31948 ft | 460 kts | 213° |
| 2026-05-07 10:36 | 43.84321 | -14.99454 | 31977 ft | 452 kts | 213° |
| 2026-05-07 10:37 | 43.78917 | -15.03989 | 31981 ft | 455 kts | 213° |
| 2026-05-07 10:37 | 43.73476 | -15.08547 | 31977 ft | 458 kts | 212° |
| 2026-05-07 10:38 | 43.67992 | -15.13130 | 31977 ft | 460 kts | 212° |
| 2026-05-07 10:38 | 43.62538 | -15.17676 | 31967 ft | 460 kts | 212° |
| 2026-05-07 10:39 | 43.57054 | -15.22238 | 31969 ft | 459 kts | 212° |
| 2026-05-07 10:39 | 43.51574 | -15.26786 | 31967 ft | 458 kts | 212° |
| 2026-05-07 10:40 | 43.46121 | -15.31303 | 31963 ft | 456 kts | 212° |
| 2026-05-07 10:40 | 43.40714 | -15.35771 | 31966 ft | 455 kts | 212° |
| 2026-05-07 10:41 | 43.35292 | -15.40244 | 31965 ft | 454 kts | 212° |
| 2026-05-07 10:41 | 43.29893 | -15.44688 | 31964 ft | 453 kts | 211° |
| 2026-05-07 10:42 | 43.24500 | -15.49117 | 31964 ft | 453 kts | 211° |
| 2026-05-07 10:42 | 43.19080 | -15.53560 | 31961 ft | 453 kts | 211° |
| 2026-05-07 10:43 | 43.13664 | -15.57989 | 31962 ft | 453 kts | 211° |
| 2026-05-07 10:43 | 43.08272 | -15.62390 | 31962 ft | 453 kts | 211° |
| 2026-05-07 10:44 | 43.02872 | -15.66789 | 31959 ft | 453 kts | 211° |
| 2026-05-07 10:44 | 42.97457 | -15.71190 | 31959 ft | 452 kts | 211° |
| 2026-05-07 10:45 | 42.92043 | -15.75582 | 31956 ft | 452 kts | 211° |
| 2026-05-07 10:45 | 42.86620 | -15.79972 | 31957 ft | 452 kts | 211° |
| 2026-05-07 10:46 | 42.81232 | -15.84325 | 31957 ft | 452 kts | 211° |
| 2026-05-07 10:46 | 42.75812 | -15.88695 | 31954 ft | 451 kts | 211° |
| 2026-05-07 10:47 | 42.70438 | -15.93018 | 31955 ft | 451 kts | 211° |
| 2026-05-07 10:47 | 42.65014 | -15.97372 | 31953 ft | 451 kts | 210° |
| 2026-05-07 10:48 | 42.59624 | -16.01691 | 31954 ft | 451 kts | 210° |
| 2026-05-07 10:48 | 42.54211 | -16.06019 | 31953 ft | 450 kts | 210° |
| 2026-05-07 10:49 | 42.48829 | -16.10315 | 31948 ft | 450 kts | 210° |
| 2026-05-07 10:49 | 42.43448 | -16.14600 | 31952 ft | 450 kts | 210° |
| 2026-05-07 10:50 | 42.38041 | -16.18897 | 31946 ft | 449 kts | 210° |
| 2026-05-07 10:50 | 42.32653 | -16.23171 | 31948 ft | 449 kts | 210° |
| 2026-05-07 10:51 | 42.27254 | -16.27444 | 31945 ft | 448 kts | 210° |
| 2026-05-07 10:51 | 42.21902 | -16.31673 | 31946 ft | 447 kts | 210° |
| 2026-05-07 10:52 | 42.16510 | -16.35924 | 31945 ft | 447 kts | 210° |
| 2026-05-07 10:52 | 42.11159 | -16.40134 | 31947 ft | 446 kts | 210° |
| 2026-05-07 10:53 | 42.05829 | -16.44320 | 31942 ft | 445 kts | 210° |
| 2026-05-07 10:53 | 42.00477 | -16.48515 | 31942 ft | 444 kts | 210° |
| 2026-05-07 10:54 | 41.95136 | -16.52693 | 31941 ft | 444 kts | 210° |
| 2026-05-07 10:54 | 41.89792 | -16.56865 | 31944 ft | 443 kts | 210° |
| 2026-05-07 10:55 | 41.84493 | -16.60993 | 31944 ft | 442 kts | 209° |
| 2026-05-07 10:55 | 41.79179 | -16.65122 | 31755 ft | 446 kts | 216° |
| 2026-05-07 10:56 | 41.73740 | -16.69350 | 31922 ft | 457 kts | 217° |
| 2026-05-07 10:56 | 41.68147 | -16.73698 | 31949 ft | 471 kts | 217° |
| 2026-05-07 10:57 | 41.62409 | -16.78140 | 31953 ft | 486 kts | 217° |
| 2026-05-07 10:57 | 41.56460 | -16.82728 | 31954 ft | 500 kts | 217° |
| 2026-05-07 10:58 | 41.50339 | -16.87437 | 31948 ft | 512 kts | 217° |
| 2026-05-07 10:58 | 41.44144 | -16.92189 | 31937 ft | 518 kts | 216° |
| 2026-05-07 10:59 | 41.37869 | -16.96987 | 31926 ft | 519 kts | 216° |
| 2026-05-07 10:59 | 41.31640 | -17.01744 | 31927 ft | 518 kts | 217° |
| 2026-05-07 11:00 | 41.25370 | -17.06526 | 31933 ft | 518 kts | 217° |
| 2026-05-07 11:00 | 41.19113 | -17.11289 | 31922 ft | 518 kts | 217° |
| 2026-05-07 11:01 | 41.12878 | -17.16026 | 31924 ft | 518 kts | 217° |
| 2026-05-07 11:01 | 41.06590 | -17.20797 | 31916 ft | 520 kts | 217° |
| 2026-05-07 11:02 | 41.00327 | -17.25530 | 31923 ft | 521 kts | 217° |
| 2026-05-07 11:02 | 40.94001 | -17.30300 | 31929 ft | 521 kts | 217° |
| 2026-05-07 11:03 | 40.87725 | -17.35023 | 31923 ft | 522 kts | 217° |
| 2026-05-07 11:03 | 40.81442 | -17.39742 | 31921 ft | 521 kts | 216° |
| 2026-05-07 11:04 | 40.75134 | -17.44469 | 31929 ft | 521 kts | 216° |
| 2026-05-07 11:04 | 40.68825 | -17.49187 | 31933 ft | 520 kts | 216° |
| 2026-05-07 11:05 | 40.62559 | -17.53863 | 31925 ft | 519 kts | 216° |
| 2026-05-07 11:05 | 40.56261 | -17.58552 | 31927 ft | 519 kts | 216° |
| 2026-05-07 11:06 | 40.49974 | -17.63223 | 31922 ft | 518 kts | 216° |
| 2026-05-07 11:06 | 40.43716 | -17.67862 | 31927 ft | 518 kts | 216° |
| 2026-05-07 11:07 | 40.37420 | -17.72520 | 31923 ft | 518 kts | 216° |
| 2026-05-07 11:07 | 40.31166 | -17.77137 | 31927 ft | 518 kts | 216° |
| 2026-05-07 11:08 | 40.24858 | -17.81783 | 31921 ft | 518 kts | 216° |
| 2026-05-07 11:08 | 40.18596 | -17.86386 | 31928 ft | 518 kts | 216° |
| 2026-05-07 11:09 | 40.12321 | -17.90988 | 31920 ft | 518 kts | 216° |
| 2026-05-07 11:09 | 40.06014 | -17.95605 | 31928 ft | 518 kts | 216° |
| 2026-05-07 11:10 | 39.99751 | -18.00180 | 31917 ft | 518 kts | 216° |
| 2026-05-07 11:10 | 39.93319 | -18.04522 | 31980 ft | 523 kts | 212° |
| 2026-05-07 11:11 | 39.90038 | -18.06595 | 32221 ft | 525 kts | 212° |
| 2026-05-07 11:11 | 39.86744 | -18.08656 | 32541 ft | 525 kts | 212° |
| 2026-05-07 11:11 | 39.83431 | -18.10736 | 32863 ft | 524 kts | 212° |
| 2026-05-07 11:11 | 39.80200 | -18.12780 | 33183 ft | 523 kts | 212° |
| 2026-05-07 11:12 | 39.76925 | -18.14867 | 33464 ft | 524 kts | 212° |
| 2026-05-07 11:12 | 39.73635 | -18.16975 | 33710 ft | 525 kts | 212° |
| 2026-05-07 11:12 | 39.70394 | -18.19057 | 33860 ft | 527 kts | 212° |
| 2026-05-07 11:12 | 39.67098 | -18.21175 | 33900 ft | 529 kts | 212° |
| 2026-05-07 11:13 | 39.60494 | -18.25406 | 33909 ft | 526 kts | 212° |
| 2026-05-07 11:13 | 39.53932 | -18.29595 | 33910 ft | 523 kts | 212° |
| 2026-05-07 11:14 | 39.47456 | -18.33720 | 33927 ft | 521 kts | 212° |
| 2026-05-07 11:14 | 39.40943 | -18.37862 | 33928 ft | 520 kts | 212° |
| 2026-05-07 11:15 | 39.34443 | -18.41987 | 33923 ft | 519 kts | 212° |
| 2026-05-07 11:15 | 39.31206 | -18.44039 | 34327 ft | 517 kts | 208° |
| 2026-05-07 11:15 | 39.28107 | -18.46001 | 34740 ft | 479 kts | 207° |
| 2026-05-07 11:16 | 39.25223 | -18.47820 | 34758 ft | 451 kts | 207° |
| 2026-05-07 11:16 | 39.22422 | -18.49587 | 34576 ft | 438 kts | 207° |
| 2026-05-07 11:16 | 39.19717 | -18.51294 | 34383 ft | 427 kts | 207° |
| 2026-05-07 11:16 | 39.17105 | -18.52941 | 34179 ft | 419 kts | 207° |
| 2026-05-07 11:17 | 39.14488 | -18.54591 | 34072 ft | 418 kts | 207° |
| 2026-05-07 11:17 | 39.11847 | -18.56256 | 34020 ft | 424 kts | 207° |
| 2026-05-07 11:17 | 39.07385 | -18.59065 | 33980 ft | 434 kts | 207° |
| 2026-05-07 11:18 | 39.01015 | -18.63066 | 33930 ft | 439 kts | 207° |
| 2026-05-07 11:18 | 38.96444 | -18.65929 | 33923 ft | 439 kts | 207° |
| 2026-05-07 11:19 | 38.90943 | -18.69370 | 33927 ft | 438 kts | 207° |
| 2026-05-07 11:19 | 38.85490 | -18.72776 | 33930 ft | 438 kts | 207° |
| 2026-05-07 11:20 | 38.79994 | -18.76203 | 33932 ft | 437 kts | 207° |
| 2026-05-07 11:20 | 38.74512 | -18.79615 | 33927 ft | 437 kts | 207° |
| 2026-05-07 11:21 | 38.69033 | -18.83020 | 33930 ft | 438 kts | 207° |
| 2026-05-07 11:21 | 38.63574 | -18.86407 | 33937 ft | 438 kts | 207° |
| 2026-05-07 11:22 | 38.58081 | -18.89808 | 33934 ft | 439 kts | 207° |
| 2026-05-07 11:22 | 38.52567 | -18.93217 | 33932 ft | 439 kts | 207° |
| 2026-05-07 11:23 | 38.47087 | -18.96599 | 33932 ft | 439 kts | 207° |
| 2026-05-07 11:23 | 38.41568 | -18.99999 | 33932 ft | 440 kts | 207° |
| 2026-05-07 11:24 | 38.36044 | -19.03397 | 33933 ft | 440 kts | 207° |
| 2026-05-07 11:24 | 38.30566 | -19.06760 | 33933 ft | 440 kts | 207° |
| 2026-05-07 11:25 | 38.25047 | -19.10143 | 33934 ft | 439 kts | 207° |
| 2026-05-07 11:25 | 38.19528 | -19.13520 | 33930 ft | 440 kts | 207° |
| 2026-05-07 11:26 | 38.14051 | -19.16867 | 33933 ft | 439 kts | 207° |
| 2026-05-07 11:26 | 38.08524 | -19.20238 | 33933 ft | 440 kts | 207° |
| 2026-05-07 11:27 | 38.02996 | -19.23604 | 33936 ft | 440 kts | 207° |
| 2026-05-07 11:27 | 37.97503 | -19.26942 | 33944 ft | 440 kts | 208° |
| 2026-05-07 11:28 | 37.91965 | -19.30303 | 33932 ft | 441 kts | 208° |
| 2026-05-07 11:28 | 37.86437 | -19.33652 | 33941 ft | 442 kts | 208° |
| 2026-05-07 11:29 | 37.80865 | -19.37022 | 33939 ft | 442 kts | 208° |
| 2026-05-07 11:29 | 37.75302 | -19.40381 | 33937 ft | 443 kts | 208° |
| 2026-05-07 11:30 | 37.69763 | -19.43719 | 33937 ft | 443 kts | 208° |
| 2026-05-07 11:30 | 37.64183 | -19.47077 | 33940 ft | 444 kts | 208° |
| 2026-05-07 11:31 | 37.58598 | -19.50432 | 33936 ft | 444 kts | 208° |
| 2026-05-07 11:31 | 37.53039 | -19.53766 | 33933 ft | 445 kts | 208° |
| 2026-05-07 11:32 | 37.44618 | -19.58806 | 33933 ft | 446 kts | 208° |
| 2026-05-07 11:33 | 37.39045 | -19.62135 | 33933 ft | 446 kts | 208° |
| 2026-05-07 11:33 | 37.33418 | -19.65490 | 33934 ft | 447 kts | 208° |
| 2026-05-07 11:34 | 37.27816 | -19.68825 | 33949 ft | 447 kts | 208° |
| 2026-05-07 11:34 | 37.22170 | -19.72180 | 33948 ft | 448 kts | 208° |
| 2026-05-07 11:35 | 37.16526 | -19.75529 | 33947 ft | 449 kts | 208° |
| 2026-05-07 11:35 | 37.10892 | -19.78866 | 33950 ft | 449 kts | 208° |
| 2026-05-07 11:36 | 37.05232 | -19.82213 | 33944 ft | 450 kts | 208° |
| 2026-05-07 11:36 | 36.99591 | -19.85543 | 33948 ft | 450 kts | 208° |
| 2026-05-07 11:37 | 36.93901 | -19.88897 | 33948 ft | 451 kts | 208° |
| 2026-05-07 11:37 | 36.88245 | -19.92224 | 33950 ft | 451 kts | 208° |
| 2026-05-07 11:38 | 36.82542 | -19.95575 | 33951 ft | 452 kts | 209° |
| 2026-05-07 11:38 | 36.76865 | -19.98904 | 33947 ft | 452 kts | 209° |
| 2026-05-07 11:39 | 36.71153 | -20.02249 | 33955 ft | 453 kts | 209° |
| 2026-05-07 11:39 | 36.65465 | -20.05574 | 33952 ft | 454 kts | 209° |
| 2026-05-07 11:40 | 36.59726 | -20.08923 | 33956 ft | 454 kts | 209° |
| 2026-05-07 11:40 | 36.54027 | -20.12243 | 33953 ft | 455 kts | 209° |
| 2026-05-07 11:41 | 36.48284 | -20.15583 | 33959 ft | 456 kts | 209° |
| 2026-05-07 11:41 | 36.42528 | -20.18926 | 33961 ft | 456 kts | 209° |
| 2026-05-07 11:42 | 36.36755 | -20.22273 | 33961 ft | 457 kts | 209° |
| 2026-05-07 11:42 | 36.31002 | -20.25603 | 33961 ft | 457 kts | 209° |
| 2026-05-07 11:43 | 36.25258 | -20.28921 | 33961 ft | 457 kts | 209° |
| 2026-05-07 11:43 | 36.19476 | -20.32258 | 33965 ft | 458 kts | 209° |
| 2026-05-07 11:44 | 36.13694 | -20.35587 | 33970 ft | 458 kts | 209° |
| 2026-05-07 11:44 | 36.07947 | -20.38892 | 33989 ft | 458 kts | 209° |
| 2026-05-07 11:45 | 36.02165 | -20.42212 | 33965 ft | 458 kts | 210° |
| 2026-05-07 11:45 | 35.96361 | -20.45539 | 33957 ft | 460 kts | 210° |
| 2026-05-07 11:46 | 35.90586 | -20.48843 | 33970 ft | 460 kts | 210° |
| 2026-05-07 11:46 | 35.84770 | -20.52166 | 33975 ft | 459 kts | 210° |
| 2026-05-07 11:47 | 35.78995 | -20.55459 | 33972 ft | 459 kts | 210° |
| 2026-05-07 11:47 | 35.73184 | -20.58769 | 33968 ft | 459 kts | 210° |
| 2026-05-07 11:48 | 35.67380 | -20.62069 | 33974 ft | 459 kts | 210° |
| 2026-05-07 11:48 | 35.61601 | -20.65349 | 33975 ft | 460 kts | 210° |
| 2026-05-07 11:49 | 35.55772 | -20.68653 | 33982 ft | 461 kts | 210° |
| 2026-05-07 11:49 | 35.49935 | -20.71956 | 33980 ft | 462 kts | 210° |
| 2026-05-07 11:50 | 35.44126 | -20.75238 | 33981 ft | 463 kts | 210° |
| 2026-05-07 11:50 | 35.38254 | -20.78550 | 33989 ft | 463 kts | 210° |
| 2026-05-07 11:51 | 35.32381 | -20.81857 | 33988 ft | 464 kts | 210° |
| 2026-05-07 11:51 | 35.26541 | -20.85140 | 33989 ft | 464 kts | 210° |
| 2026-05-07 11:52 | 35.20649 | -20.88447 | 33987 ft | 464 kts | 210° |
| 2026-05-07 11:52 | 35.14794 | -20.91729 | 33990 ft | 465 kts | 210° |
| 2026-05-07 11:53 | 35.08932 | -20.95011 | 33995 ft | 465 kts | 210° |
| 2026-05-07 11:53 | 35.03022 | -20.98313 | 34000 ft | 465 kts | 210° |
| 2026-05-07 11:54 | 34.97395 | -21.02107 | 33998 ft | 458 kts | 220° |
| 2026-05-07 11:54 | 34.92227 | -21.06592 | 33997 ft | 458 kts | 221° |
| 2026-05-07 11:55 | 34.87017 | -21.11093 | 34002 ft | 458 kts | 220° |
| 2026-05-07 11:55 | 34.81822 | -21.15546 | 34006 ft | 459 kts | 220° |
| 2026-05-07 11:56 | 34.76588 | -21.20010 | 34003 ft | 459 kts | 220° |
| 2026-05-07 11:56 | 34.71372 | -21.24449 | 34008 ft | 459 kts | 221° |
| 2026-05-07 11:57 | 34.66136 | -21.28898 | 34007 ft | 458 kts | 221° |
| 2026-05-07 11:57 | 34.60933 | -21.33313 | 34013 ft | 458 kts | 221° |
| 2026-05-07 11:58 | 34.55697 | -21.37750 | 34010 ft | 457 kts | 221° |
| 2026-05-07 11:58 | 34.50469 | -21.42173 | 34006 ft | 457 kts | 221° |
| 2026-05-07 11:59 | 34.45275 | -21.46560 | 34017 ft | 456 kts | 221° |
| 2026-05-07 11:59 | 34.40060 | -21.50958 | 34021 ft | 456 kts | 221° |
| 2026-05-07 12:00 | 34.34871 | -21.55329 | 34014 ft | 455 kts | 221° |
| 2026-05-07 12:00 | 34.29654 | -21.59715 | 34015 ft | 455 kts | 221° |
| 2026-05-07 12:01 | 34.24479 | -21.64059 | 34022 ft | 455 kts | 221° |
| 2026-05-07 12:01 | 34.19298 | -21.68402 | 34015 ft | 455 kts | 221° |
| 2026-05-07 12:02 | 34.14087 | -21.72764 | 34023 ft | 455 kts | 221° |
| 2026-05-07 12:02 | 34.08883 | -21.77113 | 34028 ft | 454 kts | 222° |
| 2026-05-07 12:03 | 34.03679 | -21.81455 | 34024 ft | 454 kts | 222° |
| 2026-05-07 12:03 | 33.98509 | -21.85763 | 34021 ft | 454 kts | 222° |
| 2026-05-07 12:04 | 33.93301 | -21.90095 | 34022 ft | 454 kts | 222° |
| 2026-05-07 12:04 | 33.88093 | -21.94421 | 34026 ft | 454 kts | 222° |
| 2026-05-07 12:05 | 33.82923 | -21.98709 | 34027 ft | 454 kts | 222° |
| 2026-05-07 12:05 | 33.77705 | -22.03030 | 34032 ft | 454 kts | 222° |
| 2026-05-07 12:06 | 33.72492 | -22.07341 | 34026 ft | 454 kts | 222° |
| 2026-05-07 12:06 | 33.67276 | -22.11647 | 34041 ft | 454 kts | 222° |
| 2026-05-07 12:07 | 33.62091 | -22.15922 | 34039 ft | 454 kts | 222° |
| 2026-05-07 12:07 | 33.57749 | -22.19497 | 34034 ft | 454 kts | 222° |
| 2026-05-07 12:08 | 33.52538 | -22.23781 | 34030 ft | 453 kts | 222° |
| 2026-05-07 12:08 | 33.47330 | -22.28056 | 34032 ft | 453 kts | 222° |
| 2026-05-07 12:09 | 33.42151 | -22.32302 | 34034 ft | 453 kts | 222° |
| 2026-05-07 12:09 | 33.36944 | -22.36564 | 34041 ft | 453 kts | 222° |
| 2026-05-07 12:10 | 33.31751 | -22.40808 | 34038 ft | 453 kts | 222° |
| 2026-05-07 12:10 | 33.26538 | -22.45063 | 34042 ft | 453 kts | 222° |
| 2026-05-07 12:11 | 33.21320 | -22.49315 | 34045 ft | 454 kts | 222° |
| 2026-05-07 12:11 | 33.16119 | -22.53548 | 34048 ft | 454 kts | 222° |
| 2026-05-07 12:12 | 33.10891 | -22.57795 | 34047 ft | 453 kts | 222° |
| 2026-05-07 12:12 | 33.05666 | -22.62034 | 34049 ft | 453 kts | 222° |
| 2026-05-07 12:13 | 33.00467 | -22.66246 | 34064 ft | 453 kts | 222° |
| 2026-05-07 12:13 | 32.95234 | -22.70480 | 34062 ft | 453 kts | 222° |
| 2026-05-07 12:14 | 32.90038 | -22.74677 | 34055 ft | 453 kts | 222° |
| 2026-05-07 12:14 | 32.84806 | -22.78897 | 34054 ft | 453 kts | 223° |
| 2026-05-07 12:15 | 32.79597 | -22.83094 | 34057 ft | 454 kts | 223° |
| 2026-05-07 12:15 | 32.74360 | -22.87306 | 34059 ft | 454 kts | 223° |
| 2026-05-07 12:16 | 32.69107 | -22.91525 | 34063 ft | 454 kts | 223° |
| 2026-05-07 12:16 | 32.63885 | -22.95713 | 34058 ft | 455 kts | 223° |
| 2026-05-07 12:17 | 32.58629 | -22.99923 | 34066 ft | 455 kts | 223° |
| 2026-05-07 12:17 | 32.53395 | -23.04108 | 34070 ft | 456 kts | 223° |
| 2026-05-07 12:18 | 32.48122 | -23.08319 | 34072 ft | 456 kts | 223° |
| 2026-05-07 12:18 | 32.42878 | -23.12501 | 34072 ft | 457 kts | 223° |
| 2026-05-07 12:19 | 32.37585 | -23.16715 | 34074 ft | 457 kts | 223° |
| 2026-05-07 12:19 | 32.32316 | -23.20904 | 34076 ft | 458 kts | 223° |
| 2026-05-07 12:20 | 32.27023 | -23.25106 | 34076 ft | 458 kts | 223° |
| 2026-05-07 12:20 | 32.21747 | -23.29289 | 34079 ft | 458 kts | 223° |
| 2026-05-07 12:21 | 32.16446 | -23.33487 | 34082 ft | 458 kts | 223° |
| 2026-05-07 12:21 | 32.11148 | -23.37675 | 34080 ft | 458 kts | 223° |
| 2026-05-07 12:22 | 32.05864 | -23.41846 | 34086 ft | 458 kts | 224° |
| 2026-05-07 12:22 | 32.00575 | -23.46015 | 34087 ft | 458 kts | 224° |
| 2026-05-07 12:23 | 31.95272 | -23.50189 | 34092 ft | 457 kts | 224° |
| 2026-05-07 12:23 | 31.89977 | -23.54352 | 34082 ft | 457 kts | 224° |
| 2026-05-07 12:24 | 31.84679 | -23.58511 | 34081 ft | 456 kts | 224° |
| 2026-05-07 12:24 | 31.79429 | -23.62626 | 34086 ft | 455 kts | 224° |
| 2026-05-07 12:25 | 31.74154 | -23.66755 | 34098 ft | 454 kts | 224° |
| 2026-05-07 12:25 | 31.68916 | -23.70850 | 34091 ft | 453 kts | 224° |
| 2026-05-07 12:26 | 31.63661 | -23.74953 | 34084 ft | 452 kts | 224° |
| 2026-05-07 12:26 | 31.58411 | -23.79045 | 34083 ft | 451 kts | 224° |
| 2026-05-07 12:27 | 31.53209 | -23.83095 | 34087 ft | 451 kts | 224° |
| 2026-05-07 12:27 | 31.47983 | -23.87159 | 34094 ft | 450 kts | 224° |
| 2026-05-07 12:28 | 31.42788 | -23.91192 | 34096 ft | 449 kts | 224° |
| 2026-05-07 12:28 | 31.37571 | -23.95237 | 34095 ft | 449 kts | 224° |
| 2026-05-07 12:29 | 31.32356 | -23.99276 | 34094 ft | 448 kts | 224° |
| 2026-05-07 12:29 | 31.27183 | -24.03275 | 34104 ft | 448 kts | 224° |
| 2026-05-07 12:30 | 31.21984 | -24.07291 | 34103 ft | 447 kts | 224° |
| 2026-05-07 12:30 | 31.16775 | -24.11309 | 34104 ft | 447 kts | 224° |
| 2026-05-07 12:31 | 31.11608 | -24.15289 | 34105 ft | 448 kts | 224° |
| 2026-05-07 12:31 | 31.06400 | -24.19295 | 34107 ft | 448 kts | 224° |
| 2026-05-07 12:32 | 31.01188 | -24.23298 | 34107 ft | 448 kts | 224° |
| 2026-05-07 12:32 | 30.95999 | -24.27279 | 34106 ft | 448 kts | 224° |
| 2026-05-07 12:33 | 30.88148 | -24.33292 | 34126 ft | 450 kts | 224° |
| 2026-05-07 12:33 | 30.82925 | -24.37287 | 34120 ft | 451 kts | 224° |
| 2026-05-07 12:34 | 30.77675 | -24.41296 | 34114 ft | 452 kts | 224° |
| 2026-05-07 12:34 | 30.72404 | -24.45315 | 34112 ft | 453 kts | 224° |
| 2026-05-07 12:35 | 30.67132 | -24.49329 | 34110 ft | 454 kts | 223° |
| 2026-05-07 12:35 | 30.61871 | -24.53331 | 34115 ft | 455 kts | 223° |
| 2026-05-07 12:36 | 30.56559 | -24.57366 | 34115 ft | 456 kts | 223° |
| 2026-05-07 12:36 | 30.51237 | -24.61402 | 34120 ft | 457 kts | 223° |
| 2026-05-07 12:37 | 30.45939 | -24.65415 | 34122 ft | 458 kts | 223° |
| 2026-05-07 12:37 | 30.40594 | -24.69459 | 34132 ft | 458 kts | 223° |
| 2026-05-07 12:38 | 30.35238 | -24.73506 | 34131 ft | 459 kts | 223° |
| 2026-05-07 12:38 | 30.29900 | -24.77533 | 34126 ft | 460 kts | 222° |
| 2026-05-07 12:39 | 30.24522 | -24.81586 | 34126 ft | 461 kts | 222° |
| 2026-05-07 12:39 | 30.19165 | -24.85617 | 34122 ft | 461 kts | 222° |
| 2026-05-07 12:40 | 30.13767 | -24.89675 | 34127 ft | 462 kts | 222° |
| 2026-05-07 12:40 | 30.08366 | -24.93730 | 34133 ft | 463 kts | 222° |
| 2026-05-07 12:41 | 30.02975 | -24.97760 | 34131 ft | 465 kts | 220° |
| 2026-05-07 12:41 | 29.97108 | -25.01117 | 34142 ft | 480 kts | 209° |
| 2026-05-07 12:42 | 29.90694 | -25.03527 | 34138 ft | 486 kts | 206° |
| 2026-05-07 12:42 | 29.84220 | -25.05844 | 34134 ft | 487 kts | 206° |
| 2026-05-07 12:43 | 29.77747 | -25.08186 | 34132 ft | 487 kts | 206° |